Aérodrome :
LOGIN :

S'inscrire | Disclaimer

   EN    FR    IT 

 










Légende :    VFR   VFR Marginal   IFR   IFR Intensif   IFR Très Intensif
Visi : 
Plafond : 
>= 8 km
>= 3000ft
5 à 8 km
1000 à 3000 ft
1500m à 5 km
500 à 1000 ft
800 à 1500m
200 à 500 ft
< 800m
< 200 ft
Symboles :   Orages  Brouillard  Fortes neiges  Fortes précipitations  Vent > 20 kt
SIGMETs :   Divers  Orages  Givrage  Turbulence  Onde Orograph.  Cendres Volcan.






- Altitude de l'aérodrome : 267 ft


EGDR - Culdrose Navy

DERNIER METAR :
  • 171220Z 22014G24KT 9999 -SHRA FEW014 SCT024 14/11 Q1002 TEMPO 5000 SHRA SCT008 BKN016TCU RMK WHT TEMPO GRN

METARs EXPIRÉS :
  • 171150Z 22018G30KT 9999 -SHRA FEW016 SCT024 13/11 Q1002 TEMPO 5000 SHRA SCT008 BKN016TCU RMK WHT TEMPO GRN
  • 171142Z 22017G30KT 9999 SHRA FEW010 SCT022 13/10 Q1002 TEMPO 5000 SHRA SCT008 BKN016TCU RMK WHT TEMPO GRN
  • 171120Z 21018KT 9999 FEW018 SCT025 14/10 Q1002 TEMPO 5000 SHRA SCT008 BKN016TCU RMK BLU TEMPO GRN
  • 171050Z 20019KT 9999 FEW016 14/10 Q1003 TEMPO 5000 SHRA SCT008 BKN016TCU RMK BLU TEMPO GRN
  • 171026Z 21016G26KT 9999 FEW016 14/10 Q1003 TEMPO 5000 SHRA SCT008 BKN016TCU RMK BLU TEMPO GRN
  • 170950Z 21016G27KT 9999 VCSH FEW016 13/10 Q1003 TEMPO 5000 SHRA SCT008 BKN016TCU RMK BLU TEMPO GRN

TAF COR TAF EGDR
Valide du 17 à 12h jusqu'au 17 à 21h UTC


171148Z 1712/1721 21020G30KT 9999 FEW018
TEMPO 1712/1721 8000 -SHRA SCT018
PROB40
TEMPO 1713/1721 5000 SHRA SCT008
PROB30
TEMPO 1714/1721 3500 +SHRA TSRA BKN006 BKN014CB



MET'MAP, la Météo Aéronautique d'un coup d'oeil ! - Copyright ORBIFLY Décembre 2007 - Disclaimer

ORBIFLY MET'MAP TEAM :

Programmation & Développement : Alexandra Zaïnal
Conception & Développement : Baudouin d'Aumeries
Co-Programmation & Développement : Marc-Olivier Méhu
Soutien technique & logistique : Manuel Goepfert

Contact : metmap@orbifly.com




SOURCES & CREDITS :

   NOAA